sensor_id;sensor_type;location;lat;lon;timestamp;temperature;humidity
12384;DHT22;6256;63.808;20.336;2023-04-19T00:02:02;3.10;99.90
12384;DHT22;6256;63.808;20.336;2023-04-19T00:04:28;3.10;99.90
12384;DHT22;6256;63.808;20.336;2023-04-19T00:06:54;3.10;99.90
12384;DHT22;6256;63.808;20.336;2023-04-19T00:09:21;3.10;99.90
12384;DHT22;6256;63.808;20.336;2023-04-19T00:11:46;3.20;99.90
12384;DHT22;6256;63.808;20.336;2023-04-19T00:14:12;3.30;99.90
12384;DHT22;6256;63.808;20.336;2023-04-19T00:16:37;3.20;99.90
12384;DHT22;6256;63.808;20.336;2023-04-19T00:19:03;3.20;99.90
12384;DHT22;6256;63.808;20.336;2023-04-19T00:21:29;3.30;99.90
12384;DHT22;6256;63.808;20.336;2023-04-19T00:23:55;3.20;99.90
12384;DHT22;6256;63.808;20.336;2023-04-19T00:26:21;3.20;99.90
12384;DHT22;6256;63.808;20.336;2023-04-19T00:28:47;3.20;99.90
12384;DHT22;6256;63.808;20.336;2023-04-19T00:31:12;3.20;99.90
12384;DHT22;6256;63.808;20.336;2023-04-19T00:33:38;3.20;99.90
12384;DHT22;6256;63.808;20.336;2023-04-19T00:36:04;3.20;99.90
12384;DHT22;6256;63.808;20.336;2023-04-19T00:38:29;3.20;99.90
12384;DHT22;6256;63.808;20.336;2023-04-19T00:40:56;3.30;99.90
12384;DHT22;6256;63.808;20.336;2023-04-19T00:43:22;3.30;99.90
12384;DHT22;6256;63.808;20.336;2023-04-19T00:45:48;3.30;99.90
12384;DHT22;6256;63.808;20.336;2023-04-19T00:48:14;3.30;99.90
12384;DHT22;6256;63.808;20.336;2023-04-19T00:50:42;3.20;99.90
12384;DHT22;6256;63.808;20.336;2023-04-19T00:53:09;3.20;99.90
12384;DHT22;6256;63.808;20.336;2023-04-19T00:55:35;3.20;99.90
12384;DHT22;6256;63.808;20.336;2023-04-19T00:58:05;3.20;99.90
12384;DHT22;6256;63.808;20.336;2023-04-19T01:00:30;3.10;99.90
12384;DHT22;6256;63.808;20.336;2023-04-19T01:02:57;3.10;99.90
12384;DHT22;6256;63.808;20.336;2023-04-19T01:05:22;3.10;99.90
12384;DHT22;6256;63.808;20.336;2023-04-19T01:07:48;3.00;99.90
12384;DHT22;6256;63.808;20.336;2023-04-19T01:10:14;3.00;99.90
12384;DHT22;6256;63.808;20.336;2023-04-19T01:12:40;2.90;99.90
12384;DHT22;6256;63.808;20.336;2023-04-19T01:15:07;2.90;99.90
12384;DHT22;6256;63.808;20.336;2023-04-19T01:17:33;2.90;99.90
12384;DHT22;6256;63.808;20.336;2023-04-19T01:20:00;2.80;99.90
12384;DHT22;6256;63.808;20.336;2023-04-19T01:22:26;2.80;99.90
12384;DHT22;6256;63.808;20.336;2023-04-19T01:24:52;2.70;99.90
12384;DHT22;6256;63.808;20.336;2023-04-19T01:27:18;2.70;99.90
12384;DHT22;6256;63.808;20.336;2023-04-19T01:29:44;2.60;99.90
12384;DHT22;6256;63.808;20.336;2023-04-19T01:32:10;2.60;99.90
12384;DHT22;6256;63.808;20.336;2023-04-19T01:34:37;2.50;99.90
12384;DHT22;6256;63.808;20.336;2023-04-19T01:37:03;2.50;99.90
12384;DHT22;6256;63.808;20.336;2023-04-19T01:39:29;2.40;99.90
12384;DHT22;6256;63.808;20.336;2023-04-19T01:44:20;2.20;99.90
12384;DHT22;6256;63.808;20.336;2023-04-19T01:46:47;2.10;99.90
12384;DHT22;6256;63.808;20.336;2023-04-19T01:49:13;2.10;99.90
12384;DHT22;6256;63.808;20.336;2023-04-19T01:51:38;2.00;99.90
12384;DHT22;6256;63.808;20.336;2023-04-19T01:54:04;2.00;99.90
12384;DHT22;6256;63.808;20.336;2023-04-19T01:58:57;1.90;99.90
12384;DHT22;6256;63.808;20.336;2023-04-19T02:01:23;1.80;99.90
12384;DHT22;6256;63.808;20.336;2023-04-19T02:03:49;1.80;99.90
12384;DHT22;6256;63.808;20.336;2023-04-19T02:06:14;1.70;99.90
12384;DHT22;6256;63.808;20.336;2023-04-19T02:08:41;1.70;99.90
12384;DHT22;6256;63.808;20.336;2023-04-19T02:11:11;1.60;99.90
12384;DHT22;6256;63.808;20.336;2023-04-19T02:13:39;1.60;99.90
12384;DHT22;6256;63.808;20.336;2023-04-19T02:16:05;1.50;99.90
12384;DHT22;6256;63.808;20.336;2023-04-19T02:18:31;1.50;99.90
12384;DHT22;6256;63.808;20.336;2023-04-19T02:20:58;1.50;99.90
12384;DHT22;6256;63.808;20.336;2023-04-19T02:23:24;1.50;99.90
12384;DHT22;6256;63.808;20.336;2023-04-19T02:25:50;1.50;99.90
12384;DHT22;6256;63.808;20.336;2023-04-19T02:28:16;1.40;99.90
12384;DHT22;6256;63.808;20.336;2023-04-19T02:30:42;1.40;99.90
12384;DHT22;6256;63.808;20.336;2023-04-19T02:33:09;1.30;99.90
12384;DHT22;6256;63.808;20.336;2023-04-19T02:35:35;1.20;99.90
12384;DHT22;6256;63.808;20.336;2023-04-19T02:38:02;1.20;99.90
12384;DHT22;6256;63.808;20.336;2023-04-19T02:40:28;1.30;99.90
12384;DHT22;6256;63.808;20.336;2023-04-19T02:42:54;1.30;99.90
12384;DHT22;6256;63.808;20.336;2023-04-19T02:45:19;1.20;99.90
12384;DHT22;6256;63.808;20.336;2023-04-19T02:47:45;1.20;99.90
12384;DHT22;6256;63.808;20.336;2023-04-19T02:50:11;1.20;99.90
12384;DHT22;6256;63.808;20.336;2023-04-19T02:52:37;1.20;99.90
12384;DHT22;6256;63.808;20.336;2023-04-19T02:55:05;1.10;99.90
12384;DHT22;6256;63.808;20.336;2023-04-19T02:57:30;1.10;99.90
12384;DHT22;6256;63.808;20.336;2023-04-19T02:59:56;1.10;99.90
12384;DHT22;6256;63.808;20.336;2023-04-19T03:02:23;1.10;99.90
12384;DHT22;6256;63.808;20.336;2023-04-19T03:04:49;1.10;99.90
12384;DHT22;6256;63.808;20.336;2023-04-19T03:07:15;1.00;99.90
12384;DHT22;6256;63.808;20.336;2023-04-19T03:09:41;1.00;99.90
12384;DHT22;6256;63.808;20.336;2023-04-19T03:12:07;1.00;99.90
12384;DHT22;6256;63.808;20.336;2023-04-19T03:14:33;1.00;99.90
12384;DHT22;6256;63.808;20.336;2023-04-19T03:16:58;1.00;99.90
12384;DHT22;6256;63.808;20.336;2023-04-19T03:19:24;1.00;99.90
12384;DHT22;6256;63.808;20.336;2023-04-19T03:21:50;1.10;99.90
12384;DHT22;6256;63.808;20.336;2023-04-19T03:24:18;1.10;99.90
12384;DHT22;6256;63.808;20.336;2023-04-19T03:26:44;1.10;99.90
12384;DHT22;6256;63.808;20.336;2023-04-19T03:29:10;1.10;99.90
12384;DHT22;6256;63.808;20.336;2023-04-19T03:31:36;1.00;99.90
12384;DHT22;6256;63.808;20.336;2023-04-19T03:34:02;1.00;99.90
12384;DHT22;6256;63.808;20.336;2023-04-19T03:36:30;1.00;99.90
12384;DHT22;6256;63.808;20.336;2023-04-19T03:38:56;1.00;99.90
12384;DHT22;6256;63.808;20.336;2023-04-19T03:41:24;1.00;99.90
12384;DHT22;6256;63.808;20.336;2023-04-19T03:43:50;1.10;99.90
12384;DHT22;6256;63.808;20.336;2023-04-19T03:46:15;1.10;99.90
12384;DHT22;6256;63.808;20.336;2023-04-19T03:48:41;1.10;99.90
12384;DHT22;6256;63.808;20.336;2023-04-19T03:51:07;1.10;99.90
12384;DHT22;6256;63.808;20.336;2023-04-19T03:53:33;1.20;99.90
12384;DHT22;6256;63.808;20.336;2023-04-19T03:55:58;1.20;99.90
12384;DHT22;6256;63.808;20.336;2023-04-19T03:58:24;1.20;99.90
12384;DHT22;6256;63.808;20.336;2023-04-19T04:00:50;1.20;99.90
12384;DHT22;6256;63.808;20.336;2023-04-19T04:03:16;1.20;99.90
12384;DHT22;6256;63.808;20.336;2023-04-19T04:05:42;1.20;99.90
12384;DHT22;6256;63.808;20.336;2023-04-19T04:08:07;1.30;99.90
12384;DHT22;6256;63.808;20.336;2023-04-19T04:10:33;1.30;99.90
12384;DHT22;6256;63.808;20.336;2023-04-19T04:12:59;1.30;99.90
12384;DHT22;6256;63.808;20.336;2023-04-19T04:15:24;1.40;99.90
12384;DHT22;6256;63.808;20.336;2023-04-19T04:17:50;1.40;99.90
12384;DHT22;6256;63.808;20.336;2023-04-19T04:20:16;1.40;99.90
12384;DHT22;6256;63.808;20.336;2023-04-19T04:22:42;1.50;99.90
12384;DHT22;6256;63.808;20.336;2023-04-19T04:25:09;1.60;99.90
12384;DHT22;6256;63.808;20.336;2023-04-19T04:27:35;1.60;99.90
12384;DHT22;6256;63.808;20.336;2023-04-19T04:30:01;1.70;99.90
12384;DHT22;6256;63.808;20.336;2023-04-19T04:32:27;1.80;99.90
12384;DHT22;6256;63.808;20.336;2023-04-19T04:34:52;1.80;99.90
12384;DHT22;6256;63.808;20.336;2023-04-19T04:37:18;1.90;99.90
12384;DHT22;6256;63.808;20.336;2023-04-19T04:39:44;1.90;99.90
12384;DHT22;6256;63.808;20.336;2023-04-19T04:42:09;2.00;99.90
12384;DHT22;6256;63.808;20.336;2023-04-19T04:44:35;2.10;99.90
12384;DHT22;6256;63.808;20.336;2023-04-19T04:47:01;2.10;99.90
12384;DHT22;6256;63.808;20.336;2023-04-19T04:49:28;2.10;99.90
12384;DHT22;6256;63.808;20.336;2023-04-19T04:51:54;2.20;99.90
12384;DHT22;6256;63.808;20.336;2023-04-19T04:54:20;2.30;99.90
12384;DHT22;6256;63.808;20.336;2023-04-19T04:56:46;2.40;99.90
12384;DHT22;6256;63.808;20.336;2023-04-19T04:59:12;2.50;99.90
12384;DHT22;6256;63.808;20.336;2023-04-19T05:01:37;2.60;99.90
12384;DHT22;6256;63.808;20.336;2023-04-19T05:04:03;2.70;99.90
12384;DHT22;6256;63.808;20.336;2023-04-19T05:06:29;2.80;99.90
12384;DHT22;6256;63.808;20.336;2023-04-19T05:08:55;2.80;99.90
12384;DHT22;6256;63.808;20.336;2023-04-19T05:11:21;3.00;99.90
12384;DHT22;6256;63.808;20.336;2023-04-19T05:13:46;3.00;99.90
12384;DHT22;6256;63.808;20.336;2023-04-19T05:18:38;3.10;99.90
12384;DHT22;6256;63.808;20.336;2023-04-19T05:21:04;3.20;99.90
12384;DHT22;6256;63.808;20.336;2023-04-19T05:23:31;3.30;99.90
12384;DHT22;6256;63.808;20.336;2023-04-19T05:25:56;3.30;99.90
12384;DHT22;6256;63.808;20.336;2023-04-19T05:28:22;3.40;99.90
12384;DHT22;6256;63.808;20.336;2023-04-19T05:30:48;3.40;99.90
12384;DHT22;6256;63.808;20.336;2023-04-19T05:33:13;3.50;99.90
12384;DHT22;6256;63.808;20.336;2023-04-19T05:35:39;3.50;99.90
12384;DHT22;6256;63.808;20.336;2023-04-19T05:38:05;3.60;99.90
12384;DHT22;6256;63.808;20.336;2023-04-19T05:40:31;3.60;99.90
12384;DHT22;6256;63.808;20.336;2023-04-19T05:42:57;3.70;99.90
12384;DHT22;6256;63.808;20.336;2023-04-19T05:45:23;3.70;99.90
12384;DHT22;6256;63.808;20.336;2023-04-19T05:47:48;3.80;99.90
12384;DHT22;6256;63.808;20.336;2023-04-19T05:50:14;3.80;99.90
12384;DHT22;6256;63.808;20.336;2023-04-19T05:52:42;3.90;99.90
12384;DHT22;6256;63.808;20.336;2023-04-19T05:55:08;3.90;99.90
12384;DHT22;6256;63.808;20.336;2023-04-19T05:57:34;4.00;99.90
12384;DHT22;6256;63.808;20.336;2023-04-19T06:00:00;4.10;99.90
12384;DHT22;6256;63.808;20.336;2023-04-19T06:02:26;4.20;99.90
12384;DHT22;6256;63.808;20.336;2023-04-19T06:04:51;4.20;99.90
12384;DHT22;6256;63.808;20.336;2023-04-19T06:07:17;4.10;99.90
12384;DHT22;6256;63.808;20.336;2023-04-19T06:09:43;4.30;99.90
12384;DHT22;6256;63.808;20.336;2023-04-19T06:12:10;4.40;99.90
12384;DHT22;6256;63.808;20.336;2023-04-19T06:14:37;4.40;99.90
12384;DHT22;6256;63.808;20.336;2023-04-19T06:17:02;4.50;99.90
12384;DHT22;6256;63.808;20.336;2023-04-19T06:19:28;4.60;99.90
12384;DHT22;6256;63.808;20.336;2023-04-19T06:21:54;4.70;99.90
12384;DHT22;6256;63.808;20.336;2023-04-19T06:24:20;4.70;99.90
12384;DHT22;6256;63.808;20.336;2023-04-19T06:26:45;4.80;99.90
12384;DHT22;6256;63.808;20.336;2023-04-19T06:29:12;4.90;99.90
12384;DHT22;6256;63.808;20.336;2023-04-19T06:31:38;5.00;99.90
12384;DHT22;6256;63.808;20.336;2023-04-19T06:34:04;5.10;99.90
12384;DHT22;6256;63.808;20.336;2023-04-19T06:36:29;5.20;99.90
12384;DHT22;6256;63.808;20.336;2023-04-19T06:38:55;5.30;99.90
12384;DHT22;6256;63.808;20.336;2023-04-19T06:41:21;5.40;99.90
12384;DHT22;6256;63.808;20.336;2023-04-19T06:43:47;5.50;99.90
12384;DHT22;6256;63.808;20.336;2023-04-19T06:46:13;5.70;99.90
12384;DHT22;6256;63.808;20.336;2023-04-19T06:48:38;5.80;99.90
12384;DHT22;6256;63.808;20.336;2023-04-19T06:51:04;5.90;99.90
12384;DHT22;6256;63.808;20.336;2023-04-19T06:53:30;6.00;99.90
12384;DHT22;6256;63.808;20.336;2023-04-19T06:56:01;6.10;99.90
12384;DHT22;6256;63.808;20.336;2023-04-19T06:58:29;6.20;99.90
12384;DHT22;6256;63.808;20.336;2023-04-19T07:00:56;6.30;99.90
12384;DHT22;6256;63.808;20.336;2023-04-19T07:03:22;6.50;99.90
12384;DHT22;6256;63.808;20.336;2023-04-19T07:05:48;6.50;99.90
12384;DHT22;6256;63.808;20.336;2023-04-19T07:08:14;6.60;99.90
12384;DHT22;6256;63.808;20.336;2023-04-19T07:10:40;6.60;99.90
12384;DHT22;6256;63.808;20.336;2023-04-19T07:13:11;6.70;99.90
12384;DHT22;6256;63.808;20.336;2023-04-19T07:15:36;6.80;99.90
12384;DHT22;6256;63.808;20.336;2023-04-19T07:18:02;6.90;99.90
12384;DHT22;6256;63.808;20.336;2023-04-19T07:20:28;6.90;99.90
12384;DHT22;6256;63.808;20.336;2023-04-19T07:22:57;7.00;99.90
12384;DHT22;6256;63.808;20.336;2023-04-19T07:25:22;7.10;99.90
12384;DHT22;6256;63.808;20.336;2023-04-19T07:27:48;7.20;99.70
12384;DHT22;6256;63.808;20.336;2023-04-19T07:30:14;7.30;99.80
12384;DHT22;6256;63.808;20.336;2023-04-19T07:32:40;7.40;99.60
12384;DHT22;6256;63.808;20.336;2023-04-19T07:35:06;7.50;99.60
12384;DHT22;6256;63.808;20.336;2023-04-19T07:37:31;7.60;99.20
12384;DHT22;6256;63.808;20.336;2023-04-19T07:39:57;7.70;98.60
12384;DHT22;6256;63.808;20.336;2023-04-19T07:42:23;7.80;98.40
12384;DHT22;6256;63.808;20.336;2023-04-19T07:44:49;7.90;97.70
12384;DHT22;6256;63.808;20.336;2023-04-19T07:47:15;8.00;97.60
12384;DHT22;6256;63.808;20.336;2023-04-19T07:49:41;8.10;97.30
12384;DHT22;6256;63.808;20.336;2023-04-19T07:52:08;8.10;97.10
12384;DHT22;6256;63.808;20.336;2023-04-19T07:54:34;8.20;96.60
12384;DHT22;6256;63.808;20.336;2023-04-19T07:57:00;8.30;95.80
12384;DHT22;6256;63.808;20.336;2023-04-19T07:59:26;8.40;95.60
12384;DHT22;6256;63.808;20.336;2023-04-19T08:01:52;8.40;95.60
12384;DHT22;6256;63.808;20.336;2023-04-19T08:04:17;8.50;96.40
12384;DHT22;6256;63.808;20.336;2023-04-19T08:06:44;8.60;95.20
12384;DHT22;6256;63.808;20.336;2023-04-19T08:09:10;8.60;94.60
12384;DHT22;6256;63.808;20.336;2023-04-19T08:11:36;8.70;95.40
12384;DHT22;6256;63.808;20.336;2023-04-19T08:14:01;8.80;95.10
12384;DHT22;6256;63.808;20.336;2023-04-19T08:16:30;8.90;93.90
12384;DHT22;6256;63.808;20.336;2023-04-19T08:18:56;9.00;94.10
12384;DHT22;6256;63.808;20.336;2023-04-19T08:21:22;9.20;94.40
12384;DHT22;6256;63.808;20.336;2023-04-19T08:23:47;9.20;94.10
12384;DHT22;6256;63.808;20.336;2023-04-19T08:26:13;9.40;93.70
12384;DHT22;6256;63.808;20.336;2023-04-19T08:28:39;9.50;93.10
12384;DHT22;6256;63.808;20.336;2023-04-19T08:31:05;9.50;92.20
12384;DHT22;6256;63.808;20.336;2023-04-19T08:33:34;9.70;92.10
12384;DHT22;6256;63.808;20.336;2023-04-19T08:36:00;9.80;91.50
12384;DHT22;6256;63.808;20.336;2023-04-19T08:38:26;9.80;91.10
12384;DHT22;6256;63.808;20.336;2023-04-19T08:40:53;10.00;89.60
12384;DHT22;6256;63.808;20.336;2023-04-19T08:43:20;10.10;90.10
12384;DHT22;6256;63.808;20.336;2023-04-19T08:45:49;10.20;90.10
12384;DHT22;6256;63.808;20.336;2023-04-19T08:48:16;10.30;88.40
12384;DHT22;6256;63.808;20.336;2023-04-19T08:50:42;10.50;88.90
12384;DHT22;6256;63.808;20.336;2023-04-19T08:53:11;10.60;87.60
12384;DHT22;6256;63.808;20.336;2023-04-19T08:55:39;10.70;89.60
12384;DHT22;6256;63.808;20.336;2023-04-19T08:58:05;10.80;87.30
12384;DHT22;6256;63.808;20.336;2023-04-19T09:00:37;10.80;86.30
12384;DHT22;6256;63.808;20.336;2023-04-19T09:03:06;11.00;86.60
12384;DHT22;6256;63.808;20.336;2023-04-19T09:05:32;11.10;86.50
12384;DHT22;6256;63.808;20.336;2023-04-19T09:08:28;11.20;87.20
12384;DHT22;6256;63.808;20.336;2023-04-19T09:10:59;11.10;84.70
12384;DHT22;6256;63.808;20.336;2023-04-19T09:13:26;11.20;86.50
12384;DHT22;6256;63.808;20.336;2023-04-19T09:15:52;11.30;87.50
12384;DHT22;6256;63.808;20.336;2023-04-19T09:18:19;11.30;86.70
12384;DHT22;6256;63.808;20.336;2023-04-19T09:20:45;11.30;86.90
12384;DHT22;6256;63.808;20.336;2023-04-19T09:23:14;11.20;86.40
12384;DHT22;6256;63.808;20.336;2023-04-19T09:25:54;11.20;87.00
12384;DHT22;6256;63.808;20.336;2023-04-19T09:28:20;11.30;87.70
12384;DHT22;6256;63.808;20.336;2023-04-19T09:30:47;11.30;88.90
12384;DHT22;6256;63.808;20.336;2023-04-19T09:33:35;11.40;87.90
12384;DHT22;6256;63.808;20.336;2023-04-19T09:36:04;11.30;87.20
12384;DHT22;6256;63.808;20.336;2023-04-19T09:38:45;11.40;87.30
12384;DHT22;6256;63.808;20.336;2023-04-19T09:41:12;11.40;87.10
12384;DHT22;6256;63.808;20.336;2023-04-19T09:43:37;11.50;87.30
12384;DHT22;6256;63.808;20.336;2023-04-19T09:46:03;11.60;86.30
12384;DHT22;6256;63.808;20.336;2023-04-19T09:48:29;11.90;86.80
12384;DHT22;6256;63.808;20.336;2023-04-19T09:50:59;12.00;85.70
12384;DHT22;6256;63.808;20.336;2023-04-19T09:53:27;12.00;84.10
12384;DHT22;6256;63.808;20.336;2023-04-19T09:55:53;12.10;83.90
12384;DHT22;6256;63.808;20.336;2023-04-19T09:58:20;12.20;84.30
12384;DHT22;6256;63.808;20.336;2023-04-19T10:00:47;12.40;83.90
12384;DHT22;6256;63.808;20.336;2023-04-19T10:03:17;12.30;82.00
12384;DHT22;6256;63.808;20.336;2023-04-19T10:05:43;12.30;82.40
12384;DHT22;6256;63.808;20.336;2023-04-19T10:08:10;12.40;83.40
12384;DHT22;6256;63.808;20.336;2023-04-19T10:10:39;12.50;83.30
12384;DHT22;6256;63.808;20.336;2023-04-19T10:13:07;12.60;83.10
12384;DHT22;6256;63.808;20.336;2023-04-19T10:15:35;12.50;81.50
12384;DHT22;6256;63.808;20.336;2023-04-19T10:18:05;12.60;81.10
12384;DHT22;6256;63.808;20.336;2023-04-19T10:20:57;12.60;81.20
12384;DHT22;6256;63.808;20.336;2023-04-19T10:23:25;12.80;81.80
12384;DHT22;6256;63.808;20.336;2023-04-19T10:25:56;13.00;81.20
12384;DHT22;6256;63.808;20.336;2023-04-19T10:28:22;12.90;80.80
12384;DHT22;6256;63.808;20.336;2023-04-19T10:30:59;13.00;81.70
12384;DHT22;6256;63.808;20.336;2023-04-19T10:33:30;13.00;81.00
12384;DHT22;6256;63.808;20.336;2023-04-19T10:35:59;12.90;80.30
12384;DHT22;6256;63.808;20.336;2023-04-19T10:38:42;13.10;80.80
12384;DHT22;6256;63.808;20.336;2023-04-19T10:41:09;13.30;79.80
12384;DHT22;6256;63.808;20.336;2023-04-19T10:43:43;13.30;79.20
12384;DHT22;6256;63.808;20.336;2023-04-19T10:46:13;13.90;79.30
12384;DHT22;6256;63.808;20.336;2023-04-19T10:48:48;13.80;78.50
12384;DHT22;6256;63.808;20.336;2023-04-19T10:51:18;13.90;77.80
12384;DHT22;6256;63.808;20.336;2023-04-19T10:53:55;13.90;77.60
12384;DHT22;6256;63.808;20.336;2023-04-19T10:59:22;13.80;78.50
12384;DHT22;6256;63.808;20.336;2023-04-19T11:01:49;14.00;77.40
12384;DHT22;6256;63.808;20.336;2023-04-19T11:09:28;15.20;75.40
12384;DHT22;6256;63.808;20.336;2023-04-19T11:14:51;15.70;74.10
12384;DHT22;6256;63.808;20.336;2023-04-19T11:17:21;16.10;72.20
12384;DHT22;6256;63.808;20.336;2023-04-19T11:20:07;16.40;72.10
12384;DHT22;6256;63.808;20.336;2023-04-19T11:22:38;16.40;71.90
12384;DHT22;6256;63.808;20.336;2023-04-19T11:25:09;16.70;71.00
12384;DHT22;6256;63.808;20.336;2023-04-19T11:27:36;16.80;70.30
12384;DHT22;6256;63.808;20.336;2023-04-19T11:30:08;16.80;69.40
12384;DHT22;6256;63.808;20.336;2023-04-19T11:32:34;17.20;69.00
12384;DHT22;6256;63.808;20.336;2023-04-19T11:35:07;17.40;68.60
12384;DHT22;6256;63.808;20.336;2023-04-19T11:37:34;17.20;68.00
12384;DHT22;6256;63.808;20.336;2023-04-19T11:40:00;17.20;67.80
12384;DHT22;6256;63.808;20.336;2023-04-19T11:42:26;17.60;67.60
12384;DHT22;6256;63.808;20.336;2023-04-19T11:44:53;17.80;66.30
12384;DHT22;6256;63.808;20.336;2023-04-19T11:47:19;18.40;66.50
12384;DHT22;6256;63.808;20.336;2023-04-19T11:49:45;18.00;64.50
12384;DHT22;6256;63.808;20.336;2023-04-19T11:52:10;18.20;64.90
12384;DHT22;6256;63.808;20.336;2023-04-19T11:54:36;18.60;64.40
12384;DHT22;6256;63.808;20.336;2023-04-19T11:57:07;18.40;63.80
12384;DHT22;6256;63.808;20.336;2023-04-19T11:59:34;18.70;64.30
12384;DHT22;6256;63.808;20.336;2023-04-19T12:02:11;18.70;63.50
12384;DHT22;6256;63.808;20.336;2023-04-19T12:04:37;18.30;63.30
12384;DHT22;6256;63.808;20.336;2023-04-19T12:07:04;18.10;64.20
12384;DHT22;6256;63.808;20.336;2023-04-19T12:09:35;18.40;64.00
12384;DHT22;6256;63.808;20.336;2023-04-19T12:12:01;18.40;63.20
12384;DHT22;6256;63.808;20.336;2023-04-19T12:14:28;17.90;62.30
12384;DHT22;6256;63.808;20.336;2023-04-19T12:17:08;17.60;64.40
12384;DHT22;6256;63.808;20.336;2023-04-19T12:19:44;17.30;64.00
12384;DHT22;6256;63.808;20.336;2023-04-19T12:22:15;17.20;65.10
12384;DHT22;6256;63.808;20.336;2023-04-19T12:24:41;16.90;64.70
12384;DHT22;6256;63.808;20.336;2023-04-19T12:27:08;17.00;65.90
12384;DHT22;6256;63.808;20.336;2023-04-19T12:29:34;16.70;64.90
12384;DHT22;6256;63.808;20.336;2023-04-19T12:32:00;16.60;65.80
12384;DHT22;6256;63.808;20.336;2023-04-19T12:34:26;16.90;65.90
12384;DHT22;6256;63.808;20.336;2023-04-19T12:36:52;17.00;65.80
12384;DHT22;6256;63.808;20.336;2023-04-19T12:39:18;16.90;65.50
12384;DHT22;6256;63.808;20.336;2023-04-19T12:41:43;17.30;65.80
12384;DHT22;6256;63.808;20.336;2023-04-19T12:44:10;17.80;64.90
12384;DHT22;6256;63.808;20.336;2023-04-19T12:46:35;18.10;64.20
12384;DHT22;6256;63.808;20.336;2023-04-19T12:49:01;18.90;64.20
12384;DHT22;6256;63.808;20.336;2023-04-19T12:51:26;19.20;62.30
12384;DHT22;6256;63.808;20.336;2023-04-19T12:53:53;18.70;61.90
12384;DHT22;6256;63.808;20.336;2023-04-19T12:56:19;18.60;63.30
12384;DHT22;6256;63.808;20.336;2023-04-19T12:58:45;18.20;62.40
12384;DHT22;6256;63.808;20.336;2023-04-19T13:01:11;18.00;63.10
12384;DHT22;6256;63.808;20.336;2023-04-19T13:03:36;18.40;63.90
12384;DHT22;6256;63.808;20.336;2023-04-19T13:06:03;18.80;62.60
12384;DHT22;6256;63.808;20.336;2023-04-19T13:08:29;19.60;62.70
12384;DHT22;6256;63.808;20.336;2023-04-19T13:10:55;19.90;62.60
12384;DHT22;6256;63.808;20.336;2023-04-19T13:13:21;19.80;60.80
12384;DHT22;6256;63.808;20.336;2023-04-19T13:15:47;19.20;61.60
12384;DHT22;6256;63.808;20.336;2023-04-19T13:18:12;19.40;61.30
12384;DHT22;6256;63.808;20.336;2023-04-19T13:20:38;20.00;61.20
12384;DHT22;6256;63.808;20.336;2023-04-19T13:23:05;20.30;60.90
12384;DHT22;6256;63.808;20.336;2023-04-19T13:25:30;20.90;60.60
12384;DHT22;6256;63.808;20.336;2023-04-19T13:27:56;20.60;59.00
12384;DHT22;6256;63.808;20.336;2023-04-19T13:30:22;20.60;60.10
12384;DHT22;6256;63.808;20.336;2023-04-19T13:32:47;20.80;59.70
12384;DHT22;6256;63.808;20.336;2023-04-19T13:35:13;21.40;59.80
12384;DHT22;6256;63.808;20.336;2023-04-19T13:37:39;21.50;58.30
12384;DHT22;6256;63.808;20.336;2023-04-19T13:40:07;21.40;59.00
12384;DHT22;6256;63.808;20.336;2023-04-19T13:42:33;21.70;59.60
12384;DHT22;6256;63.808;20.336;2023-04-19T13:44:58;21.40;58.20
12384;DHT22;6256;63.808;20.336;2023-04-19T13:47:24;21.20;58.30
12384;DHT22;6256;63.808;20.336;2023-04-19T13:49:50;20.90;58.00
12384;DHT22;6256;63.808;20.336;2023-04-19T13:52:17;21.20;58.60
12384;DHT22;6256;63.808;20.336;2023-04-19T13:54:43;21.90;58.10
12384;DHT22;6256;63.808;20.336;2023-04-19T13:57:09;22.40;57.10
12384;DHT22;6256;63.808;20.336;2023-04-19T13:59:34;22.60;56.80
12384;DHT22;6256;63.808;20.336;2023-04-19T14:02:04;23.40;56.10
12384;DHT22;6256;63.808;20.336;2023-04-19T14:04:31;23.40;55.40
12384;DHT22;6256;63.808;20.336;2023-04-19T14:06:56;22.70;55.90
12384;DHT22;6256;63.808;20.336;2023-04-19T14:09:22;22.30;55.90
12384;DHT22;6256;63.808;20.336;2023-04-19T14:11:48;22.20;56.00
12384;DHT22;6256;63.808;20.336;2023-04-19T14:14:14;21.90;56.20
12384;DHT22;6256;63.808;20.336;2023-04-19T14:16:40;22.60;56.20
12384;DHT22;6256;63.808;20.336;2023-04-19T14:19:05;22.50;55.80
12384;DHT22;6256;63.808;20.336;2023-04-19T14:21:31;22.00;55.60
12384;DHT22;6256;63.808;20.336;2023-04-19T14:23:58;21.30;56.20
12384;DHT22;6256;63.808;20.336;2023-04-19T14:26:24;20.40;57.30
12384;DHT22;6256;63.808;20.336;2023-04-19T14:28:49;19.90;57.50
12384;DHT22;6256;63.808;20.336;2023-04-19T14:31:15;20.20;58.20
12384;DHT22;6256;63.808;20.336;2023-04-19T14:33:41;20.80;57.70
12384;DHT22;6256;63.808;20.336;2023-04-19T14:36:07;21.70;57.20
12384;DHT22;6256;63.808;20.336;2023-04-19T14:38:33;22.60;56.80
12384;DHT22;6256;63.808;20.336;2023-04-19T14:40:59;23.20;54.90
12384;DHT22;6256;63.808;20.336;2023-04-19T14:43:25;23.70;54.40
12384;DHT22;6256;63.808;20.336;2023-04-19T14:45:51;24.10;54.40
12384;DHT22;6256;63.808;20.336;2023-04-19T14:48:17;24.70;53.60
12384;DHT22;6256;63.808;20.336;2023-04-19T14:50:44;24.80;53.20
12384;DHT22;6256;63.808;20.336;2023-04-19T14:53:13;25.20;52.60
12384;DHT22;6256;63.808;20.336;2023-04-19T14:55:39;24.00;52.50
12384;DHT22;6256;63.808;20.336;2023-04-19T14:58:04;23.10;53.40
12384;DHT22;6256;63.808;20.336;2023-04-19T15:00:31;22.40;54.10
12384;DHT22;6256;63.808;20.336;2023-04-19T15:02:57;22.00;54.40
12384;DHT22;6256;63.808;20.336;2023-04-19T15:05:24;21.50;55.50
12384;DHT22;6256;63.808;20.336;2023-04-19T15:07:51;21.10;55.30
12384;DHT22;6256;63.808;20.336;2023-04-19T15:10:17;20.30;56.10
12384;DHT22;6256;63.808;20.336;2023-04-19T15:12:43;19.90;56.90
12384;DHT22;6256;63.808;20.336;2023-04-19T15:15:09;19.20;57.70
12384;DHT22;6256;63.808;20.336;2023-04-19T15:17:34;20.00;57.80
12384;DHT22;6256;63.808;20.336;2023-04-19T15:20:00;21.20;56.30
12384;DHT22;6256;63.808;20.336;2023-04-19T15:22:26;20.90;56.00
12384;DHT22;6256;63.808;20.336;2023-04-19T15:24:52;20.40;56.20
12384;DHT22;6256;63.808;20.336;2023-04-19T15:27:18;20.20;57.00
12384;DHT22;6256;63.808;20.336;2023-04-19T15:29:45;21.70;56.90
12384;DHT22;6256;63.808;20.336;2023-04-19T15:32:11;22.60;54.50
12384;DHT22;6256;63.808;20.336;2023-04-19T15:34:37;23.40;54.50
12384;DHT22;6256;63.808;20.336;2023-04-19T15:37:03;24.10;53.30
12384;DHT22;6256;63.808;20.336;2023-04-19T15:39:30;24.20;52.50
12384;DHT22;6256;63.808;20.336;2023-04-19T15:41:56;24.30;52.70
12384;DHT22;6256;63.808;20.336;2023-04-19T15:44:23;23.90;53.00
12384;DHT22;6256;63.808;20.336;2023-04-19T15:46:49;23.00;53.40
12384;DHT22;6256;63.808;20.336;2023-04-19T15:49:14;22.30;54.20
12384;DHT22;6256;63.808;20.336;2023-04-19T15:51:40;21.30;54.60
12384;DHT22;6256;63.808;20.336;2023-04-19T15:54:06;20.20;55.90
12384;DHT22;6256;63.808;20.336;2023-04-19T15:56:31;19.30;57.20